< < Back
Terminal Aerodrome Forecast


Current Version              Previous Versions:   1  2  3  4  5  6  7  8  9  

Terminal Aerodrome Forecast

839
FTUS42 KCHS 121128
TAFSAV
TAF
KSAV 121128Z 1212/1312 VRB03KT P6SM SCT010 OVC018
     FM121600 25009KT P6SM SCT008 BKN020
     FM121800 28010G16KT P6SM BKN030
     FM122100 30007KT P6SM SCT050=

Latest METAR

307
SAUS80 KWBC 131100
MTRSAV
METAR KSAV 131053Z 32008KT 10SM CLR 06/M01 A3018 RMK AO2 SLP220 FIRST
AUGMENTED OBSERVATION T00611011 $


USA.gov is the U.S. government's official web portal to all federal, state and local government web resources and services.